Time;durP1;ratioP1;P1;durP2;ratioP2;P2;SDS_P1;SDS_P2;PMS_P1;PMS_P2;Temp;Humidity;BMP_temperature;BMP_pressure;BME280_temperature;BME280_humidity;BME280_pressure;Samples;Min_cycle;Max_cycle;Signal;HPM_P1;HPM_P2
2022/08/24 00:01:51;;;;;;;6.05;1.90;;;;;;;22.25;52.97;98357.22;4999992;28;20292;-56
2022/08/24 00:04:17;;;;;;;4.30;1.65;;;;;;;22.48;52.88;98403.38;4998503;28;20160;-56
2022/08/24 00:06:42;;;;;;;8.77;1.70;;;;;;;22.33;52.74;98406.44;4997428;28;20037;-57
2022/08/24 00:09:08;;;;;;;4.97;1.50;;;;;;;22.25;52.46;98396.13;4989989;28;20038;-53
2022/08/24 00:11:33;;;;;;;4.20;1.40;;;;;;;22.43;51.88;98414.66;4987704;28;20064;-59
2022/08/24 00:13:59;;;;;;;4.50;1.50;;;;;;;22.36;52.05;98403.34;4992635;28;20180;-57
2022/08/24 00:16:24;;;;;;;4.45;1.60;;;;;;;22.35;52.34;98406.22;4999217;28;20113;-55
2022/08/24 00:18:50;;;;;;;6.53;1.65;;;;;;;22.31;52.73;98411.16;4990308;28;20033;-59
2022/08/24 00:21:15;;;;;;;5.30;1.77;;;;;;;22.21;52.92;98414.31;5003947;28;20064;-55
2022/08/24 00:23:41;;;;;;;5.15;1.98;;;;;;;22.19;53.05;98420.88;4977235;28;20018;-55
2022/08/24 00:26:07;;;;;;;5.85;1.95;;;;;;;22.13;53.64;98409.34;4996348;28;20041;-58
2022/08/24 00:28:32;;;;;;;6.25;1.77;;;;;;;22.13;53.47;98412.00;4995295;28;20026;-55
2022/08/24 00:30:57;;;;;;;4.93;2.10;;;;;;;22.19;53.19;98412.94;4998721;28;20049;-57
2022/08/24 00:33:23;;;;;;;6.55;2.10;;;;;;;22.21;53.56;98418.81;4913580;28;20042;-53
2022/08/24 00:35:49;;;;;;;9.18;2.13;;;;;;;22.12;53.44;98420.16;4996163;28;20100;-57
2022/08/24 00:38:15;;;;;;;8.05;2.25;;;;;;;22.08;53.97;98425.09;4997581;28;20423;-54
2022/08/24 00:40:44;;;;;;;6.75;3.22;;;;;;;22.06;53.75;98411.25;4997460;28;20053;-56
2022/08/24 00:43:10;;;;;;;7.32;2.22;;;;;;;22.06;54.22;98417.34;4997737;28;20033;-56
2022/08/24 00:45:50;;;;;;;6.22;2.50;;;;;;;21.97;54.24;98420.53;4996024;28;20822;-56
2022/08/24 00:48:25;;;;;;;7.00;2.28;;;;;;;21.61;54.48;98385.16;4992857;28;20037;-57
2022/08/24 00:51:00;;;;;;;7.68;2.50;;;;;;;21.48;55.10;98388.75;5000955;28;20025;-58
2022/08/24 00:53:31;;;;;;;5.15;2.28;;;;;;;21.68;55.81;98415.81;4930155;28;20029;-56
2022/08/24 00:56:05;;;;;;;6.45;2.22;;;;;;;21.69;55.52;98416.63;4993763;28;20068;-55
2022/08/24 00:58:38;;;;;;;7.47;2.60;;;;;;;21.68;55.53;98420.28;4994026;28;20033;-52
2022/08/24 01:01:05;;;;;;;8.73;2.42;;;;;;;21.73;54.96;98420.44;4992308;28;20138;-56
2022/08/24 01:03:31;;;;;;;5.60;2.00;;;;;;;21.79;55.28;98421.38;5003460;28;20451;-53
2022/08/24 01:05:57;;;;;;;5.85;2.10;;;;;;;21.76;55.56;98416.50;4985598;28;20393;-55
2022/08/24 01:08:23;;;;;;;6.90;2.22;;;;;;;21.66;56.24;98419.69;4994337;28;20088;-55
2022/08/24 01:10:51;;;;;;;5.10;2.30;;;;;;;21.60;55.96;98418.75;5003244;28;20032;-55
2022/08/24 01:13:17;;;;;;;4.78;2.30;;;;;;;21.63;56.31;98423.59;4923141;28;20049;-56
2022/08/24 01:15:45;;;;;;;6.55;2.15;;;;;;;21.57;56.07;98421.00;4997299;28;20414;-56
2022/08/24 01:21:14;;;;;;;6.03;2.75;;;;;;;21.42;58.10;98405.47;4999881;28;20037;-56
2022/08/24 01:23:43;;;;;;;8.65;2.40;;;;;;;21.39;60.25;98419.94;4999559;28;20521;-56
2022/08/24 01:26:13;;;;;;;4.93;2.10;;;;;;;21.50;61.08;98424.56;5001901;28;20691;-55
2022/08/24 01:28:39;;;;;;;7.32;2.40;;;;;;;21.55;60.39;98418.59;4997768;28;20034;-56
2022/08/24 01:31:05;;;;;;;7.60;2.28;;;;;;;21.44;59.38;98422.75;4993829;28;20474;-54
2022/08/24 01:33:31;;;;;;;5.63;2.20;;;;;;;21.35;59.25;98394.97;4939648;28;20065;-54
2022/08/24 01:36:04;;;;;;;5.07;2.20;;;;;;;21.58;59.54;98430.59;4999537;28;20180;-56
2022/08/24 01:38:30;;;;;;;5.38;2.10;;;;;;;21.69;59.87;98435.94;4997933;28;20728;-56
2022/08/24 01:41:00;;;;;;;4.30;1.90;;;;;;;21.74;60.36;98430.00;4999941;28;20022;-55
2022/08/24 01:43:26;;;;;;;4.25;1.70;;;;;;;21.56;61.25;98422.03;4999273;28;20025;-53
2022/08/24 01:45:52;;;;;;;5.85;1.90;;;;;;;21.68;61.17;98430.84;4998862;28;20088;-56
2022/08/24 01:48:18;;;;;;;4.80;1.80;;;;;;;21.64;61.07;98427.84;5000595;28;20034;-55
2022/08/24 01:50:44;;;;;;;6.13;2.63;;;;;;;21.46;60.10;98396.09;4997363;28;20316;-57
2022/08/24 01:53:09;;;;;;;9.02;1.88;;;;;;;21.66;61.09;98424.97;4985789;28;20384;-53
2022/08/24 01:55:35;;;;;;;4.68;2.05;;;;;;;21.65;60.02;98423.38;4996795;28;20594;-56
2022/08/24 01:58:01;;;;;;;5.30;2.10;;;;;;;21.69;60.02;98406.81;5001747;28;20027;-57
2022/08/24 02:00:27;;;;;;;5.75;2.00;;;;;;;21.83;61.28;98411.94;4997878;28;20692;-55
2022/08/24 02:02:53;;;;;;;4.72;1.70;;;;;;;21.65;61.42;98426.81;5000162;28;20030;-58
2022/08/24 02:05:18;;;;;;;4.90;1.90;;;;;;;21.68;61.47;98426.41;4998895;28;20109;-56
2022/08/24 02:07:44;;;;;;;4.53;1.80;;;;;;;21.62;60.82;98427.25;4999381;28;20408;-55
2022/08/24 02:10:11;;;;;;;5.40;1.70;;;;;;;21.65;61.24;98424.19;4994683;28;20409;-55
2022/08/24 02:12:38;;;;;;;4.78;1.73;;;;;;;21.49;61.26;98390.38;4978419;28;21473;-56
2022/08/24 02:15:07;;;;;;;4.70;1.92;;;;;;;21.74;60.58;98431.81;5000383;28;20531;-56
2022/08/24 02:17:33;;;;;;;3.63;1.60;;;;;;;21.65;61.43;98426.81;4998538;28;20395;-56
2022/08/24 02:19:59;;;;;;;5.35;1.90;;;;;;;21.59;61.17;98424.25;4992053;28;20345;-53
2022/08/24 02:22:24;;;;;;;3.72;1.70;;;;;;;21.37;61.05;98422.00;4996856;28;20037;-55
2022/08/24 02:24:50;;;;;;;4.00;1.70;;;;;;;21.24;60.03;98387.75;4998717;28;20030;-58
2022/08/24 02:27:15;;;;;;;4.32;1.77;;;;;;;21.24;60.01;98390.41;4996126;28;20041;-58
2022/08/24 02:29:42;;;;;;;4.03;1.90;;;;;;;21.56;60.24;98429.97;4992241;28;20025;-57
2022/08/24 02:32:07;;;;;;;4.13;1.45;;;;;;;21.51;60.07;98430.66;4935563;28;21328;-58
2022/08/24 02:34:33;;;;;;;3.67;1.67;;;;;;;21.49;60.10;98438.78;4984672;28;20026;-56
2022/08/24 02:36:58;;;;;;;9.75;1.80;;;;;;;21.41;60.33;98438.22;4994144;28;20050;-57
2022/08/24 02:39:24;;;;;;;4.00;1.67;;;;;;;21.21;60.54;98404.06;4980592;28;20026;-54
2022/08/24 02:41:50;;;;;;;5.28;1.90;;;;;;;21.30;60.47;98445.06;4999944;28;20500;-52
2022/08/24 02:44:16;;;;;;;5.05;1.83;;;;;;;21.23;61.10;98437.19;4995256;28;20034;-55
2022/08/24 02:46:41;;;;;;;3.80;1.77;;;;;;;21.11;61.01;98404.56;5000166;28;20421;-55
2022/08/24 02:49:07;;;;;;;3.92;1.73;;;;;;;21.09;61.09;98396.84;4992953;28;20034;-55
2022/08/24 02:51:33;;;;;;;4.70;1.92;;;;;;;21.23;61.39;98433.72;4993659;28;20045;-58
2022/08/24 02:54:00;;;;;;;6.15;1.80;;;;;;;21.23;61.76;98434.56;4932205;28;20040;-53
2022/08/24 02:56:28;;;;;;;4.50;1.52;;;;;;;21.20;61.65;98434.97;4996697;28;20029;-56
2022/08/24 02:58:55;;;;;;;4.30;1.75;;;;;;;21.02;62.27;98425.16;4998469;28;20041;-55
2022/08/24 03:01:20;;;;;;;5.45;1.90;;;;;;;21.12;62.33;98425.50;4993813;28;20045;-54
2022/08/24 03:03:46;;;;;;;4.63;1.70;;;;;;;21.27;62.05;98429.66;4999387;28;20033;-52
2022/08/24 03:06:12;;;;;;;4.40;1.83;;;;;;;21.32;62.21;98435.09;4997923;28;20038;-54
2022/08/24 03:08:38;;;;;;;4.22;1.73;;;;;;;21.19;62.06;98419.34;4996032;28;20036;-58
2022/08/24 03:11:04;;;;;;;5.32;1.95;;;;;;;21.08;62.86;98423.50;5000864;28;20602;-57
2022/08/24 03:13:29;;;;;;;5.18;1.90;;;;;;;21.03;62.63;98426.81;4989556;28;20575;-55
2022/08/24 03:15:56;;;;;;;4.90;1.98;;;;;;;20.93;63.50;98432.56;5000791;28;20033;-55
2022/08/24 03:18:24;;;;;;;4.40;1.80;;;;;;;20.96;63.27;98420.75;5001471;28;20622;-56
2022/08/24 03:20:50;;;;;;;6.60;1.95;;;;;;;21.07;62.75;98416.59;5003249;28;20064;-53
2022/08/24 03:23:15;;;;;;;4.10;1.90;;;;;;;21.15;62.68;98428.72;4983389;28;20050;-57
2022/08/24 03:25:41;;;;;;;5.28;1.70;;;;;;;21.10;63.11;98418.78;4993020;28;20026;-55
2022/08/24 03:28:07;;;;;;;4.80;1.77;;;;;;;20.71;63.38;98387.22;4990830;28;20034;-55
2022/08/24 03:30:32;;;;;;;5.18;2.20;;;;;;;20.93;63.75;98423.81;4998539;28;20033;-56
2022/08/24 03:32:58;;;;;;;5.15;2.00;;;;;;;20.98;64.23;98423.19;4979306;28;20030;-55
2022/08/24 03:35:24;;;;;;;4.75;1.70;;;;;;;20.98;64.05;98415.28;4983302;28;20033;-56
2022/08/24 03:37:50;;;;;;;5.00;1.90;;;;;;;20.74;64.40;98417.69;5004746;28;20029;-55
2022/08/24 03:40:16;;;;;;;5.70;1.90;;;;;;;20.96;63.92;98419.97;5000303;28;20401;-57
2022/08/24 03:42:41;;;;;;;4.68;1.90;;;;;;;20.85;64.67;98410.91;5011596;28;20076;-57
2022/08/24 03:45:08;;;;;;;5.15;2.03;;;;;;;20.64;64.56;98381.16;5001602;28;20141;-56
2022/08/24 03:47:34;;;;;;;5.50;2.10;;;;;;;20.93;64.70;98424.63;4997911;28;20687;-55
2022/08/24 03:50:00;;;;;;;6.20;2.08;;;;;;;20.72;65.45;98422.38;5002206;28;20548;-56
2022/08/24 03:52:25;;;;;;;5.80;2.05;;;;;;;20.74;65.23;98421.13;4936228;28;20032;-56
2022/08/24 03:54:51;;;;;;;5.22;2.20;;;;;;;20.77;65.14;98419.09;4994984;28;20057;-57
2022/08/24 03:57:17;;;;;;;5.32;2.10;;;;;;;20.81;65.41;98420.25;4998942;28;20033;-57
2022/08/24 03:59:42;;;;;;;4.72;2.08;;;;;;;20.90;65.36;98430.38;5000538;28;20531;-56
2022/08/24 04:02:08;;;;;;;5.47;2.28;;;;;;;20.88;65.45;98423.66;4999742;28;20040;-57
2022/08/24 04:04:34;;;;;;;4.88;2.25;;;;;;;20.82;66.07;98419.25;4990174;28;20036;-56
2022/08/24 04:06:59;;;;;;;5.88;2.10;;;;;;;20.86;66.24;98423.06;4999103;28;20034;-57
2022/08/24 04:09:25;;;;;;;5.93;2.00;;;;;;;20.52;67.78;98383.69;4995333;28;20038;-57
2022/08/24 04:11:50;;;;;;;4.47;1.77;;;;;;;20.70;67.84;98405.94;4923334;28;20022;-56
2022/08/24 04:14:16;;;;;;;5.75;2.30;;;;;;;20.80;67.72;98424.75;4997456;28;20030;-55
2022/08/24 04:16:43;;;;;;;5.68;2.30;;;;;;;20.78;67.75;98420.72;4995811;28;20022;-57
2022/08/24 04:19:09;;;;;;;4.80;2.20;;;;;;;20.82;67.86;98417.41;5003366;28;20084;-55
2022/08/24 04:21:35;;;;;;;4.55;2.20;;;;;;;20.85;67.90;98427.56;4996018;28;20034;-55
2022/08/24 04:24:03;;;;;;;6.40;2.20;;;;;;;20.84;68.69;98433.06;4997735;28;20418;-56
2022/08/24 04:26:30;;;;;;;4.20;2.10;;;;;;;20.57;69.08;98398.88;4994458;28;20034;-56
2022/08/24 04:28:56;;;;;;;6.43;2.30;;;;;;;20.80;69.17;98439.81;4994303;28;20077;-56
2022/08/24 04:31:22;;;;;;;7.85;2.20;;;;;;;20.77;68.86;98430.44;4986260;28;20029;-54
2022/08/24 04:33:48;;;;;;;4.50;2.20;;;;;;;20.80;69.52;98437.16;4996790;28;20038;-57
2022/08/24 04:36:16;;;;;;;5.40;2.35;;;;;;;20.81;68.20;98444.88;4997387;28;20041;-59
2022/08/24 04:38:41;;;;;;;6.82;2.25;;;;;;;20.87;68.62;98430.00;4995091;28;20057;-58
2022/08/24 04:41:13;;;;;;;6.20;2.60;;;;;;;20.93;68.97;98448.41;5004477;28;20072;-58
2022/08/24 04:43:39;;;;;;;5.32;2.50;;;;;;;20.77;69.54;98433.09;4990360;28;20033;-58
2022/08/24 04:46:06;;;;;;;6.03;2.50;;;;;;;20.58;69.80;98429.56;4998263;28;20050;-57
2022/08/24 04:48:32;;;;;;;5.93;2.38;;;;;;;20.72;70.15;98454.09;4990822;28;20029;-57
2022/08/24 04:51:06;;;;;;;5.22;2.63;;;;;;;20.65;70.24;98448.03;4989676;28;20034;-56
2022/08/24 04:53:32;;;;;;;4.38;2.28;;;;;;;20.55;71.05;98451.09;4994238;28;20034;-55
2022/08/24 04:55:58;;;;;;;5.05;2.30;;;;;;;20.60;70.69;98446.00;4995573;28;20042;-56
2022/08/24 04:58:24;;;;;;;6.35;2.40;;;;;;;20.50;70.99;98449.13;4997678;28;20022;-56
2022/08/24 05:00:49;;;;;;;5.35;2.30;;;;;;;20.49;71.18;98457.25;4995542;28;20054;-58
2022/08/24 05:03:15;;;;;;;5.40;2.20;;;;;;;20.39;71.82;98463.00;4998803;28;20516;-57
2022/08/24 05:05:43;;;;;;;4.43;2.10;;;;;;;20.38;71.89;98463.22;4997673;28;20089;-58
2022/08/24 05:08:09;;;;;;;5.95;2.40;;;;;;;20.48;71.80;98468.81;4999494;28;20501;-57
2022/08/24 05:10:40;;;;;;;5.43;2.40;;;;;;;20.44;72.00;98465.00;4921426;28;20037;-55
2022/08/24 05:13:06;;;;;;;4.60;2.40;;;;;;;20.48;71.93;98463.53;4989118;28;20033;-54
2022/08/24 05:15:32;;;;;;;5.43;2.40;;;;;;;20.45;71.90;98463.97;4989919;28;20018;-56
2022/08/24 05:17:58;;;;;;;5.78;2.88;;;;;;;20.39;72.28;98459.53;4997756;28;20054;-58
2022/08/24 05:20:23;;;;;;;4.70;2.20;;;;;;;20.42;72.01;98469.66;4996056;28;20150;-57
2022/08/24 05:22:51;;;;;;;5.72;2.60;;;;;;;20.38;72.38;98463.22;4998189;28;20027;-55
2022/08/24 05:25:16;;;;;;;5.75;2.20;;;;;;;20.14;71.96;98428.59;4996604;28;20033;-57
2022/08/24 05:27:42;;;;;;;5.07;2.17;;;;;;;20.36;71.90;98474.78;4995983;28;20481;-56
2022/08/24 05:30:08;;;;;;;5.95;2.22;;;;;;;20.32;71.67;98463.03;4994560;28;20485;-56
2022/08/24 05:32:34;;;;;;;4.68;2.30;;;;;;;20.35;71.48;98469.69;4993687;28;20583;-57
2022/08/24 05:35:00;;;;;;;6.82;2.38;;;;;;;20.38;70.88;98468.47;4993213;28;20030;-56
2022/08/24 05:37:26;;;;;;;4.55;2.30;;;;;;;20.40;70.74;98464.59;4996981;28;20018;-55
2022/08/24 05:39:51;;;;;;;4.40;2.30;;;;;;;20.30;70.96;98466.91;4976888;28;20333;-56
2022/08/24 05:42:17;;;;;;;4.65;2.35;;;;;;;20.13;70.91;98451.56;4998354;28;20014;-57
2022/08/24 05:44:42;;;;;;;4.95;2.20;;;;;;;20.38;70.58;98471.13;4998352;28;20037;-59
2022/08/24 05:47:08;;;;;;;5.03;2.38;;;;;;;20.43;70.11;98477.38;4995156;28;20026;-57
2022/08/24 05:49:33;;;;;;;5.03;2.10;;;;;;;20.45;69.99;98477.97;4887846;28;20107;-58
2022/08/24 05:51:59;;;;;;;4.93;2.10;;;;;;;20.44;69.62;98465.78;4999967;28;20042;-55
2022/08/24 05:54:25;;;;;;;3.92;2.00;;;;;;;20.40;69.76;98467.25;4988528;28;20029;-57
2022/08/24 05:56:51;;;;;;;4.32;2.20;;;;;;;20.41;70.11;98475.97;4995166;28;20072;-56
2022/08/24 05:59:18;;;;;;;5.07;2.25;;;;;;;20.40;69.96;98469.88;4991005;28;20030;-55
2022/08/24 06:01:44;;;;;;;4.30;2.00;;;;;;;20.11;70.33;98437.72;4997461;28;20095;-56
2022/08/24 06:04:09;;;;;;;6.68;2.40;;;;;;;20.37;70.48;98478.25;4996094;28;20038;-56
2022/08/24 06:06:35;;;;;;;5.85;2.22;;;;;;;20.42;70.86;98478.41;4994323;28;20504;-58
2022/08/24 06:09:00;;;;;;;4.68;2.03;;;;;;;20.32;71.26;98478.06;4922356;28;20111;-56
2022/08/24 06:11:36;;;;;;;7.03;2.67;;;;;;;20.41;70.73;98470.69;5001021;28;20108;-56
2022/08/24 06:14:11;;;;;;;5.78;2.20;;;;;;;20.15;71.10;98443.41;5007524;28;20116;-57
2022/08/24 06:16:39;;;;;;;4.05;2.03;;;;;;;20.38;70.85;98479.84;5003062;28;20048;-57
2022/08/24 06:19:05;;;;;;;4.93;2.22;;;;;;;20.39;71.15;98475.38;4999492;28;20045;-56
2022/08/24 06:21:31;;;;;;;4.25;2.00;;;;;;;20.36;71.36;98466.06;5005237;28;20749;-56
2022/08/24 06:23:57;;;;;;;5.72;2.38;;;;;;;20.34;71.35;98460.19;5003522;28;20033;-57
2022/08/24 06:29:07;;;;;;;5.25;2.63;;;;;;;20.41;70.79;98460.13;5001244;28;20048;-57
2022/08/24 06:31:37;;;;;;;6.10;2.20;;;;;;;20.44;70.71;98462.34;4994269;28;20042;-57
2022/08/24 06:34:02;;;;;;;5.72;2.20;;;;;;;20.52;69.85;98472.69;5002010;28;20041;-58
2022/08/24 06:36:28;;;;;;;5.30;1.85;;;;;;;20.24;70.00;98434.22;4995550;28;20053;-57
2022/08/24 06:38:53;;;;;;;4.90;2.08;;;;;;;20.49;69.86;98473.09;5006244;28;20030;-56
2022/08/24 06:41:19;;;;;;;4.93;2.13;;;;;;;20.19;70.20;98431.44;5000362;28;20037;-56
2022/08/24 06:43:44;;;;;;;6.20;2.50;;;;;;;20.26;69.87;98432.19;4966002;28;20136;-58
2022/08/24 06:46:10;;;;;;;4.75;2.15;;;;;;;20.56;69.54;98465.94;4929330;28;20053;-56
2022/08/24 06:48:36;;;;;;;5.32;2.10;;;;;;;20.39;69.42;98436.59;4994002;28;20116;-56
2022/08/24 06:51:11;;;;;;;6.35;2.10;;;;;;;20.34;68.36;98439.84;5003419;28;20130;-57
2022/08/24 06:53:37;;;;;;;5.03;2.20;;;;;;;20.57;68.14;98470.19;4999668;28;20293;-59
2022/08/24 06:56:03;;;;;;;5.28;2.03;;;;;;;20.19;67.96;98401.56;5001483;28;20037;-58
2022/08/24 06:58:29;;;;;;;7.07;2.60;;;;;;;20.45;67.21;98438.38;4999805;28;20033;-57
2022/08/24 07:00:58;;;;;;;5.55;2.17;;;;;;;20.60;66.78;98455.75;5000224;28;20411;-58
2022/08/24 07:03:24;;;;;;;4.82;2.28;;;;;;;20.14;67.10;98408.28;4926123;28;20058;-59
2022/08/24 07:05:51;;;;;;;5.72;2.35;;;;;;;20.37;67.41;98428.06;4996639;28;20075;-58
2022/08/24 07:08:17;;;;;;;5.40;2.10;;;;;;;20.57;66.87;98472.81;4999880;28;20120;-59
2022/08/24 07:10:42;;;;;;;5.93;2.28;;;;;;;20.59;66.87;98468.16;5000500;28;20624;-59
2022/08/24 07:13:10;;;;;;;7.28;2.40;;;;;;;20.64;66.92;98470.97;5000377;28;20041;-59
2022/08/24 07:15:35;;;;;;;5.53;2.22;;;;;;;20.63;66.26;98479.94;4997428;28;20493;-59
2022/08/24 07:18:01;;;;;;;5.03;2.00;;;;;;;20.58;67.28;98476.28;5000228;28;20101;-58
2022/08/24 07:20:29;;;;;;;4.20;1.90;;;;;;;20.73;66.73;98479.47;5001059;28;20038;-58
2022/08/24 07:22:54;;;;;;;6.35;2.83;;;;;;;20.68;66.99;98477.47;4992918;28;20489;-59
2022/08/24 07:25:20;;;;;;;4.95;2.50;;;;;;;20.77;66.62;98472.72;4985875;28;20036;-58
2022/08/24 07:27:46;;;;;;;4.53;2.30;;;;;;;20.71;66.09;98466.47;5000168;28;21551;-60
2022/08/24 07:30:12;;;;;;;5.28;2.08;;;;;;;20.84;65.93;98478.78;4998356;28;20132;-60
2022/08/24 07:32:37;;;;;;;4.43;2.08;;;;;;;20.68;64.94;98440.50;5000158;28;20625;-58
2022/08/24 07:35:03;;;;;;;5.30;2.70;;;;;;;20.83;65.09;98477.16;4994655;28;20091;-57
2022/08/24 07:37:29;;;;;;;7.05;2.63;;;;;;;20.60;64.33;98440.72;4996463;28;20038;-57
2022/08/24 07:39:55;;;;;;;6.22;2.95;;;;;;;20.88;64.71;98479.97;4980562;28;20897;-57
2022/08/24 07:42:22;;;;;;;5.50;2.72;;;;;;;20.96;64.63;98484.19;5001267;28;20032;-57
2022/08/24 07:44:50;;;;;;;5.05;2.25;;;;;;;21.04;64.10;98478.63;5002635;28;20774;-57
2022/08/24 07:47:16;;;;;;;5.63;2.03;;;;;;;21.05;63.87;98482.91;4999278;28;20116;-58
2022/08/24 07:49:41;;;;;;;4.75;2.40;;;;;;;20.91;65.39;98444.38;4997282;28;20105;-58
2022/08/24 07:52:08;;;;;;;6.32;2.30;;;;;;;21.02;64.60;98479.88;5000730;28;20117;-59
2022/08/24 07:54:34;;;;;;;4.43;2.10;;;;;;;20.95;64.61;98442.91;4998060;28;20032;-58
2022/08/24 07:57:05;;;;;;;5.22;2.10;;;;;;;21.13;64.21;98485.25;5002236;28;20029;-58
2022/08/24 07:59:30;;;;;;;6.30;2.13;;;;;;;21.13;64.34;98479.97;4852470;28;20633;-58
2022/08/24 08:01:57;;;;;;;4.85;2.10;;;;;;;20.89;63.97;98441.16;4984104;28;20076;-58
2022/08/24 08:04:24;;;;;;;7.18;2.15;;;;;;;21.17;64.99;98461.84;4999798;28;20026;-57
2022/08/24 08:06:50;;;;;;;5.65;2.00;;;;;;;21.26;62.98;98475.59;5000782;28;20029;-58
2022/08/24 08:09:15;;;;;;;5.78;1.85;;;;;;;21.32;64.25;98477.41;5002767;28;20034;-57
2022/08/24 08:11:41;;;;;;;6.38;1.63;;;;;;;21.26;61.84;98468.47;5000059;28;20100;-57
2022/08/24 08:14:06;;;;;;;5.25;1.80;;;;;;;21.31;62.21;98476.56;4999825;28;20285;-57
2022/08/24 08:16:32;;;;;;;5.18;1.70;;;;;;;21.42;61.90;98479.53;4980988;28;20030;-60
2022/08/24 08:18:57;;;;;;;5.25;1.90;;;;;;;21.46;63.70;98472.81;4894456;28;20047;-58
2022/08/24 08:24:16;;;;;;;6.47;2.38;;;;;;;21.58;62.34;98478.19;5000667;28;20508;-58
2022/08/24 08:26:46;;;;;;;6.70;1.92;;;;;;;21.61;62.49;98475.94;4994295;28;20121;-57
2022/08/24 08:29:12;;;;;;;4.43;1.90;;;;;;;22.05;61.26;98479.28;4993161;28;20117;-57
2022/08/24 08:31:39;;;;;;;5.03;1.98;;;;;;;23.95;56.24;98467.19;5000083;28;20030;-57
2022/08/24 08:34:05;;;;;;;5.63;2.08;;;;;;;25.58;49.95;98475.53;4999576;28;20038;-57
2022/08/24 08:36:31;;;;;;;4.80;1.80;;;;;;;26.47;46.69;98432.63;4873874;28;20086;-59
2022/08/24 08:38:56;;;;;;;3.85;1.70;;;;;;;27.40;44.16;98468.88;4997374;28;20554;-58
2022/08/24 08:41:41;;;;;;;5.07;1.77;;;;;;;27.77;42.77;98454.63;4993170;28;20037;-60
2022/08/24 08:44:20;;;;;;;6.20;1.75;;;;;;;28.51;40.74;98471.44;4994712;28;20136;-58
2022/08/24 08:47:04;;;;;;;6.82;2.00;;;;;;;28.68;40.42;98470.41;5010422;28;20346;-58
2022/08/24 08:49:49;;;;;;;6.57;1.83;;;;;;;28.05;41.11;98470.53;4985200;28;20366;-58
2022/08/24 08:52:53;;;;;;;6.80;1.90;;;;;;;28.00;42.39;98444.56;4985818;28;20041;-58
2022/08/24 08:55:38;;;;;;;5.75;1.70;;;;;;;28.53;40.33;98437.25;4988486;28;20046;-56
2022/08/24 08:58:22;;;;;;;5.25;1.58;;;;;;;27.68;41.49;98466.88;4994462;28;20835;-57
2022/08/24 09:01:12;;;;;;;4.85;1.60;;;;;;;27.05;42.88;98464.03;4987170;28;20518;-58
2022/08/24 09:03:56;;;;;;;4.32;1.60;;;;;;;25.72;44.63;98439.53;4987022;28;20045;-57
2022/08/24 09:06:30;;;;;;;3.42;1.65;;;;;;;25.25;49.55;98471.88;4986411;28;20043;-59
2022/08/24 09:09:20;;;;;;;4.50;1.80;;;;;;;24.61;52.50;98462.34;4992017;28;20350;-56
2022/08/24 09:12:05;;;;;;;4.68;1.60;;;;;;;24.27;53.91;98458.75;4919698;28;20033;-57
2022/08/24 09:14:33;;;;;;;8.65;3.20;;;;;;;24.11;54.96;98450.53;4989429;28;20041;-57
2022/08/24 09:17:14;;;;;;;8.27;1.90;;;;;;;23.93;53.21;98450.66;4994485;28;20088;-55
2022/08/24 09:19:58;;;;;;;4.53;1.60;;;;;;;23.94;54.47;98434.50;4993829;28;20018;-57
2022/08/24 09:22:23;;;;;;;4.78;1.63;;;;;;;24.11;54.77;98447.03;4988364;28;20045;-59
2022/08/24 09:24:59;;;;;;;4.40;1.90;;;;;;;24.02;54.43;98440.50;4992320;28;20142;-59
2022/08/24 09:28:19;;;;;;;4.70;1.95;;;;;;;24.08;55.71;98431.59;4988714;28;20078;-54
2022/08/24 09:30:56;;;;;;;3.88;1.70;;;;;;;24.06;55.50;98423.88;4987060;28;20033;-59
2022/08/24 09:33:29;;;;;;;5.47;1.90;;;;;;;24.13;54.81;98418.38;4981247;28;20500;-58
2022/08/24 09:36:12;;;;;;;4.65;1.70;;;;;;;24.13;53.67;98418.38;4997489;28;20041;-58
2022/08/24 09:39:15;;;;;;;5.30;1.95;;;;;;;24.10;53.93;98379.84;4990252;28;20038;-57
2022/08/24 09:41:59;;;;;;;5.32;2.13;;;;;;;24.45;54.27;98410.72;4993891;28;20109;-55
2022/08/24 09:44:46;;;;;;;6.40;1.63;;;;;;;24.57;53.14;98408.06;4992858;28;20497;-58
2022/08/24 09:47:21;;;;;;;6.28;1.80;;;;;;;24.77;53.07;98404.91;4992035;28;20445;-59
2022/08/24 09:50:31;;;;;;;3.95;1.80;;;;;;;24.85;51.94;98415.13;4877663;28;20034;-58
2022/08/24 09:53:12;;;;;;;3.92;1.40;;;;;;;24.68;49.80;98409.81;4996705;28;20032;-57
2022/08/24 09:55:51;;;;;;;5.18;1.33;;;;;;;24.74;49.79;98402.72;4994400;28;20033;-56
2022/08/24 09:58:56;;;;;;;4.13;1.45;;;;;;;24.86;47.70;98394.66;4988769;28;20092;-57
2022/08/24 10:01:46;;;;;;;5.38;1.60;;;;;;;25.00;48.33;98397.81;4974234;28;20056;-57
2022/08/24 10:04:30;;;;;;;4.00;1.25;;;;;;;25.03;48.78;98395.47;4991948;28;20022;-57
2022/08/24 10:07:14;;;;;;;3.45;1.40;;;;;;;25.13;49.50;98400.94;4982112;28;20535;-57
2022/08/24 10:09:55;;;;;;;3.85;1.50;;;;;;;25.02;47.87;98361.13;4999366;28;20037;-58
2022/08/24 10:12:27;;;;;;;4.38;1.40;;;;;;;25.45;47.00;98394.19;4994564;28;20044;-56
2022/08/24 10:14:52;;;;;;;4.75;1.45;;;;;;;25.54;47.46;98394.53;4991996;28;20316;-58
2022/08/24 10:17:55;;;;;;;4.13;1.30;;;;;;;25.55;46.17;98393.50;5004069;28;20061;-56
2022/08/24 10:20:32;;;;;;;8.75;1.23;;;;;;;25.40;46.01;98362.19;5001767;28;20033;-57
2022/08/24 10:23:16;;;;;;;4.43;1.20;;;;;;;25.73;45.57;98387.88;4992869;28;20113;-58
2022/08/24 10:26:02;;;;;;;4.20;1.30;;;;;;;25.69;45.65;98382.22;5001944;28;20066;-57
2022/08/24 10:28:45;;;;;;;4.30;1.20;;;;;;;25.98;44.82;98373.28;4990159;28;20038;-56
2022/08/24 10:31:18;;;;;;;3.65;1.00;;;;;;;26.08;42.23;98371.50;5007122;28;20032;-56
2022/08/24 10:33:53;;;;;;;3.42;1.25;;;;;;;26.17;43.03;98374.50;5002622;28;20120;-58
2022/08/24 10:36:43;;;;;;;3.15;1.10;;;;;;;26.66;40.41;98374.41;5001289;28;20499;-56
2022/08/24 10:39:40;;;;;;;4.40;1.48;;;;;;;26.74;40.33;98367.81;5014973;28;20427;-57
2022/08/24 10:45:29;;;;;;;3.88;1.30;;;;;;;26.62;41.32;98368.00;4997049;28;20120;-57
2022/08/24 10:48:06;;;;;;;3.42;1.23;;;;;;;26.64;41.53;98355.22;4993955;28;20140;-57
2022/08/24 10:50:50;;;;;;;3.63;1.10;;;;;;;26.73;40.53;98363.53;4993337;28;20034;-57
2022/08/24 10:53:22;;;;;;;3.33;1.00;;;;;;;26.86;40.57;98348.97;4997323;28;20030;-59
2022/08/24 10:56:00;;;;;;;5.05;1.10;;;;;;;26.77;39.57;98347.84;4994061;28;20038;-56
2022/08/24 10:58:49;;;;;;;4.15;1.25;;;;;;;26.79;40.60;98348.38;5009065;28;20026;-56
2022/08/24 11:01:19;;;;;;;3.63;1.25;;;;;;;26.76;40.81;98336.38;4989860;28;20038;-57
2022/08/24 11:03:50;;;;;;;3.22;1.20;;;;;;;26.69;40.32;98324.28;4993959;28;20152;-55
2022/08/24 11:06:17;;;;;;;4.65;1.10;;;;;;;27.12;39.45;98346.44;4990987;28;20128;-57
2022/08/24 11:09:10;;;;;;;3.00;1.20;;;;;;;27.05;39.48;98338.66;4986771;28;20254;-57
2022/08/24 11:11:45;;;;;;;3.33;1.10;;;;;;;26.84;39.66;98314.53;5003852;28;20038;-58
2022/08/24 11:14:28;;;;;;;3.10;1.10;;;;;;;26.94;39.66;98337.00;4988940;28;21363;-58
2022/08/24 11:17:12;;;;;;;4.85;1.17;;;;;;;26.92;40.66;98339.13;4995321;28;20034;-57
2022/08/24 11:19:37;;;;;;;3.20;1.20;;;;;;;27.14;38.79;98321.09;4995089;28;20068;-57
2022/08/24 11:22:25;;;;;;;6.03;1.30;;;;;;;27.14;39.61;98336.31;4994711;28;20035;-57
2022/08/24 11:24:54;;;;;;;3.72;1.20;;;;;;;26.96;40.19;98306.34;4995252;28;20137;-60
2022/08/24 11:27:29;;;;;;;4.13;1.30;;;;;;;27.14;38.87;98299.75;4997045;28;20077;-56
2022/08/24 11:29:57;;;;;;;5.28;1.40;;;;;;;27.37;38.99;98338.56;4997690;28;20825;-56
2022/08/24 11:32:28;;;;;;;6.65;1.40;;;;;;;27.43;38.74;98336.72;4994081;28;20126;-57
2022/08/24 11:34:53;;;;;;;2.92;1.10;;;;;;;27.56;38.00;98336.25;4990422;28;20026;-56
2022/08/24 11:37:24;;;;;;;3.88;1.30;;;;;;;27.56;38.68;98333.59;5000472;28;20036;-55
2022/08/24 11:39:50;;;;;;;3.35;1.20;;;;;;;27.45;39.27;98331.13;4982932;28;20058;-56
2022/08/24 11:42:52;;;;;;;6.32;1.20;;;;;;;27.21;39.07;98300.31;4996539;28;20055;-57
2022/08/24 11:45:20;;;;;;;4.22;1.10;;;;;;;27.45;38.64;98323.91;4994929;28;20517;-57
2022/08/24 11:48:13;;;;;;;4.07;1.35;;;;;;;27.51;38.74;98320.22;4999093;28;20026;-56
2022/08/24 11:50:44;;;;;;;4.00;1.50;;;;;;;27.58;38.35;98322.63;5001265;28;20104;-56
2022/08/24 11:53:13;;;;;;;3.25;1.48;;;;;;;27.55;38.94;98336.50;4996182;28;22883;-57
2022/08/24 11:55:46;;;;;;;3.97;1.20;;;;;;;27.56;38.46;98320.22;4993994;28;20034;-56
2022/08/24 11:58:15;;;;;;;4.22;1.20;;;;;;;27.44;39.40;98318.84;4981426;28;20022;-57
2022/08/24 12:00:55;;;;;;;4.07;1.30;;;;;;;27.65;38.91;98315.16;4990937;28;20030;-55